createdAt,value
2019-01-16T00:04:30.484Z,88.29
2019-01-16T00:09:36.514Z,87.34
2019-01-16T00:14:42.492Z,87.47
2019-01-16T00:20:00.430Z,88.26
2019-01-16T00:25:13.719Z,88.22
2019-01-16T00:30:28.973Z,89.43
2019-01-16T00:35:44.280Z,89.66
2019-01-16T00:40:59.191Z,89.04
2019-01-16T00:46:20.374Z,89.61
2019-01-16T00:51:26.388Z,89.72
2019-01-16T00:56:48.838Z,88.67
2019-01-16T01:02:13.166Z,90.62
2019-01-16T01:07:31.188Z,89.16
2019-01-16T01:12:49.037Z,89.83
2019-01-16T01:17:55.066Z,89.84
2019-01-16T01:23:03.870Z,89.85
2019-01-16T01:28:19.291Z,88.92
2019-01-16T01:33:25.275Z,90.39
2019-01-16T01:38:37.078Z,90.12
2019-01-16T01:43:43.082Z,88.44
2019-01-16T01:48:58.164Z,88.72
2019-01-16T01:54:06.568Z,88.12
2019-01-16T01:59:21.757Z,88.25
2019-01-16T02:04:27.743Z,87.92
2019-01-16T02:09:39.816Z,87.31
2019-01-16T02:15:01.967Z,86.62
2019-01-16T02:20:27.447Z,85.85
2019-01-16T02:25:35.903Z,86.16
2019-01-16T02:30:41.911Z,85.84
2019-01-16T02:35:59.901Z,85.15
2019-01-16T02:41:12.324Z,84.70
2019-01-16T02:46:18.451Z,84.91
2019-01-16T02:51:32.993Z,84.55
2019-01-16T02:56:41.966Z,84.06
2019-01-16T03:01:47.944Z,84.93
2019-01-16T03:06:57.104Z,86.24
2019-01-16T03:12:15.139Z,86.24
2019-01-16T03:17:37.778Z,86.00
2019-01-16T03:22:49.977Z,87.15
2019-01-16T03:28:13.959Z,86.59
2019-01-16T03:33:29.225Z,87.26
2019-01-16T03:38:47.508Z,87.00
2019-01-16T03:44:02.645Z,88.05
2019-01-16T03:49:17.294Z,89.58
2019-01-16T03:54:29.023Z,90.31
2019-01-16T03:59:35.055Z,89.67
2019-01-16T04:04:41.075Z,90.18
2019-01-16T04:09:52.848Z,90.59
2019-01-16T04:15:10.874Z,89.78
2019-01-16T04:20:16.885Z,90.47
2019-01-16T04:25:28.347Z,90.11
2019-01-16T04:30:34.353Z,90.29
2019-01-16T04:35:42.889Z,89.31
2019-01-16T04:40:51.583Z,90.62
2019-01-16T04:46:15.670Z,90.09
2019-01-16T04:51:21.679Z,90.61
2019-01-16T04:56:30.381Z,90.07
2019-01-16T05:01:52.899Z,89.04
2019-01-16T05:07:16.695Z,89.18
2019-01-16T05:12:38.840Z,89.34
2019-01-16T05:17:53.525Z,88.28
2019-01-16T05:23:11.301Z,89.54
2019-01-16T05:28:20.113Z,86.54
2019-01-16T05:33:32.020Z,86.75
2019-01-16T05:38:37.998Z,85.60
2019-01-16T05:43:46.718Z,86.31
2019-01-16T05:48:55.886Z,83.42
2019-01-16T05:54:04.877Z,80.02
2019-01-16T05:59:10.890Z,81.74
2019-01-16T06:04:28.683Z,83.47
2019-01-16T06:09:34.687Z,83.31
2019-01-16T06:14:57.021Z,85.06
2019-01-16T06:20:19.464Z,82.95
2019-01-16T06:25:37.699Z,83.05
2019-01-16T06:30:46.395Z,81.93
2019-01-16T06:36:08.595Z,80.83
2019-01-16T06:41:15.565Z,82.27
2019-01-16T06:46:27.664Z,82.02
2019-01-16T06:51:42.670Z,82.67
2019-01-16T06:56:54.825Z,82.34
2019-01-16T07:02:16.889Z,82.33
2019-01-16T07:07:22.884Z,82.60
2019-01-16T07:12:31.436Z,82.18
2019-01-16T07:17:37.445Z,81.29
2019-01-16T07:22:43.463Z,82.85
2019-01-16T07:27:58.530Z,83.08
2019-01-16T07:33:07.570Z,82.72
2019-01-16T07:38:13.589Z,82.19
2019-01-16T07:43:23.332Z,81.08
2019-01-16T07:48:46.166Z,81.42
2019-01-16T07:53:55.026Z,82.23
2019-01-16T07:59:03.445Z,83.41
2019-01-16T08:04:11.911Z,81.64
2019-01-16T08:09:20.609Z,83.86
2019-01-16T08:14:26.600Z,82.30
2019-01-16T08:19:49.051Z,82.12
2019-01-16T08:25:04.116Z,82.77
2019-01-16T08:30:28.532Z,82.34
2019-01-16T08:35:37.293Z,81.70
2019-01-16T08:40:46.525Z,80.75
2019-01-16T08:46:05.401Z,81.61
2019-01-16T08:51:14.328Z,80.78
2019-01-16T08:56:35.485Z,81.40
2019-01-16T09:01:43.906Z,79.94
2019-01-16T09:07:06.267Z,80.58
2019-01-16T09:12:12.319Z,79.56
2019-01-16T09:17:24.979Z,78.90
2019-01-16T09:22:39.814Z,78.97
2019-01-16T09:27:45.918Z,78.82
2019-01-16T09:32:57.701Z,78.63
2019-01-16T09:38:18.740Z,78.60
2019-01-16T09:43:39.970Z,78.28
2019-01-16T09:48:46.020Z,78.17
2019-01-16T09:53:54.989Z,78.43
2019-01-16T09:59:01.016Z,78.06
2019-01-16T10:04:18.866Z,78.53
2019-01-16T10:09:24.845Z,79.21
2019-01-16T10:14:39.704Z,79.77
2019-01-16T10:19:57.638Z,78.20
2019-01-16T10:25:12.320Z,77.46
2019-01-16T10:30:21.565Z,77.99
2019-01-16T10:35:30.256Z,78.80
2019-01-16T10:40:36.271Z,77.76
2019-01-16T10:45:42.446Z,77.44
2019-01-16T10:50:48.475Z,77.22
2019-01-16T10:56:03.506Z,77.98
2019-01-16T11:01:21.428Z,79.98
2019-01-16T11:06:30.255Z,78.55
2019-01-16T11:11:36.280Z,80.20
2019-01-16T11:16:48.071Z,79.29
2019-01-16T11:21:54.060Z,80.42
2019-01-16T11:27:00.059Z,80.08
2019-01-16T11:32:09.193Z,80.16
2019-01-16T11:37:17.899Z,78.62
2019-01-16T11:42:40.261Z,79.00
2019-01-16T11:48:02.273Z,78.44
2019-01-16T11:53:14.211Z,77.67
2019-01-16T11:58:20.328Z,77.65
2019-01-16T12:03:28.742Z,77.49
2019-01-16T12:08:34.736Z,76.77
2019-01-16T12:13:56.918Z,76.34
2019-01-16T12:19:03.006Z,76.54
2019-01-16T12:24:23.839Z,76.31
2019-01-16T12:29:30.961Z,76.03
2019-01-16T12:34:42.824Z,76.71
2019-01-16T12:39:51.642Z,75.98
2019-01-16T12:45:03.899Z,76.46
2019-01-16T12:50:12.533Z,76.35
2019-01-16T12:55:21.213Z,76.06
2019-01-16T13:00:39.479Z,75.89
2019-01-16T13:05:54.128Z,76.28
2019-01-16T13:11:16.792Z,75.43
2019-01-16T13:16:34.725Z,74.83
2019-01-16T13:21:49.898Z,74.67
2019-01-16T13:27:14.189Z,74.89
2019-01-16T13:32:35.635Z,75.22
2019-01-16T13:37:47.332Z,74.57
2019-01-16T13:43:04.998Z,74.57
2019-01-16T13:48:14.159Z,74.63
2019-01-16T13:53:28.943Z,74.06
2019-01-16T13:58:37.760Z,73.31
2019-01-16T14:03:43.757Z,73.30
2019-01-16T14:08:49.941Z,73.42
2019-01-16T14:14:00.586Z,73.10
2019-01-16T14:19:09.723Z,73.15
2019-01-16T14:24:27.310Z,72.95
2019-01-16T14:29:40.329Z,72.39
2019-01-16T14:34:49.018Z,72.60
2019-01-16T14:40:07.224Z,72.38
2019-01-16T14:45:29.363Z,72.17
2019-01-16T14:50:44.243Z,72.36
2019-01-16T14:55:50.232Z,72.17
2019-01-16T15:01:12.719Z,72.47
2019-01-16T15:06:30.980Z,72.38
2019-01-16T15:11:39.570Z,72.26
2019-01-16T15:16:57.385Z,71.57
2019-01-16T15:22:21.789Z,72.54
2019-01-16T15:27:30.333Z,71.87
2019-01-16T15:32:36.339Z,73.10
2019-01-16T15:37:42.353Z,72.47
2019-01-16T15:42:51.316Z,72.37
2019-01-16T15:48:12.701Z,73.32
2019-01-16T15:53:24.430Z,73.27
2019-01-16T15:58:46.347Z,73.34
2019-01-16T16:03:52.332Z,73.29
2019-01-16T16:09:00.744Z,74.39
2019-01-16T16:14:23.462Z,74.77
2019-01-16T16:19:29.450Z,74.42
2019-01-16T16:24:38.384Z,74.91
2019-01-16T16:29:56.537Z,75.36
2019-01-16T16:35:02.624Z,75.95
2019-01-16T16:40:11.049Z,76.67
2019-01-16T16:45:19.991Z,76.15
2019-01-16T16:50:28.986Z,76.91
2019-01-16T16:55:51.125Z,77.43
2019-01-16T17:01:02.961Z,77.99
2019-01-16T17:06:09.085Z,78.34
2019-01-16T17:11:21.064Z,78.98
2019-01-16T17:16:27.056Z,80.39
2019-01-16T17:21:33.170Z,79.51
2019-01-16T17:26:42.055Z,79.31
2019-01-16T17:32:00.094Z,78.98
2019-01-16T17:37:18.122Z,79.16
2019-01-16T17:42:29.977Z,81.04
2019-01-16T17:47:52.483Z,80.98
2019-01-16T17:53:00.896Z,81.87
2019-01-16T17:58:11.004Z,81.65
2019-01-16T18:03:23.494Z,83.17
2019-01-16T18:08:44.332Z,81.49
2019-01-16T18:13:50.304Z,83.71
2019-01-16T18:19:14.735Z,81.85
2019-01-16T18:24:36.999Z,83.30
2019-01-16T18:29:59.373Z,85.25
2019-01-16T18:35:06.179Z,84.61
2019-01-16T18:40:23.138Z,83.66
2019-01-16T18:45:31.573Z,84.78
2019-01-16T18:50:52.629Z,85.46
2019-01-16T18:55:58.634Z,85.99
2019-01-16T19:01:10.691Z,85.63
2019-01-16T19:06:25.478Z,87.08
2019-01-16T19:11:40.250Z,86.55
2019-01-16T19:16:52.213Z,85.93
2019-01-16T19:22:01.168Z,84.85
2019-01-16T19:27:07.274Z,86.88
2019-01-16T19:32:16.422Z,86.69
2019-01-16T19:37:24.817Z,87.58
2019-01-16T19:42:47.265Z,87.92
2019-01-16T19:48:09.967Z,88.49
2019-01-16T19:53:18.764Z,86.34
2019-01-16T19:58:36.569Z,86.69
2019-01-16T20:03:42.555Z,86.03
2019-01-16T20:08:48.676Z,86.48
2019-01-16T20:14:00.891Z,85.71
2019-01-16T20:19:09.786Z,85.81
2019-01-16T20:24:31.068Z,85.79
2019-01-16T20:29:53.510Z,85.43
2019-01-16T20:35:11.590Z,85.83
2019-01-16T20:40:18.964Z,86.42
2019-01-16T20:45:27.978Z,84.44
2019-01-16T20:50:43.460Z,84.47
2019-01-16T20:55:58.703Z,82.36
2019-01-16T21:01:23.258Z,82.47
2019-01-16T21:06:29.352Z,81.39
2019-01-16T21:11:41.122Z,82.24
2019-01-16T21:16:59.299Z,81.77
2019-01-16T21:22:22.465Z,81.90
2019-01-16T21:27:28.455Z,81.66
2019-01-16T21:32:52.871Z,80.72
2019-01-16T21:38:05.631Z,80.91
2019-01-16T21:43:13.195Z,82.30
2019-01-16T21:48:25.177Z,83.22
2019-01-16T21:53:31.258Z,83.56
2019-01-16T21:58:46.102Z,82.51
2019-01-16T22:03:57.613Z,83.95
2019-01-16T22:09:15.661Z,83.06
2019-01-16T22:14:27.345Z,82.82
2019-01-16T22:19:41.915Z,84.64
2019-01-16T22:24:53.659Z,84.86
2019-01-16T22:30:05.690Z,84.34
2019-01-16T22:35:17.106Z,83.50
2019-01-16T22:40:27.592Z,83.12
2019-01-16T22:45:39.631Z,83.95
2019-01-16T22:50:57.260Z,85.27
2019-01-16T22:56:06.199Z,85.00
2019-01-16T23:01:13.544Z,85.70
2019-01-16T23:06:25.788Z,85.99
2019-01-16T23:11:47.193Z,85.03
2019-01-16T23:16:53.224Z,85.62
2019-01-16T23:22:15.703Z,85.78
2019-01-16T23:27:24.423Z,83.95
2019-01-16T23:32:36.196Z,83.49
2019-01-16T23:37:58.631Z,84.16
2019-01-16T23:43:20.997Z,84.32
2019-01-16T23:48:29.932Z,84.94
2019-01-16T23:53:35.975Z,84.53
2019-01-16T23:58:44.699Z,86.47
